Latest Weather Observations for Gelantipy

IDV60801

Issued at 2:02 pm EDT Tuesday 28 February 2017 (issued every 30 minutes, with the page automatically refreshed every 10 minutes)

About weather observations | Map of weather stations | Latest weather observations for VIC | Other Formats
Station Details ID: 084142 Name: GELANTIPY Lat: -37.22 Lon: 148.26 Height: 755.0 m
Data from the previous 72 hours. | See also: Recent months at Gelantipy
Date/Time
EDT
Temp
°C
App
Temp
°C
Dew
Point
°C
Rel
Hum
%
Delta-T
°C
Wind Press
QNH
hPa
Press
MSL
hPa
Rain since
9am
mm
Dir  Spd
km/h
Gust
km/h
Spd
kts
Gust
kts
28/02:00pm 28.0 25.2 5.0 23 12.2 E 9 17 5 9 1023.2 1020.5 0.0
28/01:30pm 27.4 23.3 2.5 20 12.6 ENE 13 19 7 10 1023.4 1020.7 0.0
28/01:00pm 26.7 22.7 5.1 25 11.4 NE 15 20 8 11 1023.6 1020.9 0.0
28/12:30pm 26.1 22.4 6.2 28 10.7 NE 15 24 8 13 1024.1 1021.4 0.0
28/12:00pm 24.2 20.2 8.2 36 8.8 NE 19 26 10 14 1024.4 1021.7 0.0
28/11:30am 22.8 18.8 8.9 41 7.7 NNE 20 30 11 16 1024.6 1021.9 0.0
28/11:00am 21.5 16.9 9.7 47 6.6 NNE 24 32 13 17 1024.7 1022.0 0.0
28/10:30am 21.0 17.3 10.2 50 6.1 NNE 20 28 11 15 1024.7 1022.0 0.0
28/10:00am 19.4 15.2 9.9 54 5.2 NNE 22 32 12 17 1024.7 1022.0 0.0
28/09:30am 18.3 13.1 10.2 59 4.5 NNE 28 35 15 19 1024.8 1022.1 0.0
28/09:00am 17.2 12.9 10.6 65 3.6 NNE 24 32 13 17 1024.8 1022.1 0.0
28/08:30am 15.8 11.3 10.1 69 3.1 NNE 24 30 13 16 1024.8 1022.1 0.0
28/08:00am 15.4 11.7 10.2 71 2.8 NNE 20 30 11 16 1024.6 1021.9 0.0
28/07:30am 14.0 10.4 9.8 76 2.3 NNE 19 26 10 14 1024.4 1021.7 0.0
28/07:00am 12.7 9.4 9.7 82 1.6 NNE 17 20 9 11 1024.1 1021.4 0.0
28/06:30am 13.1 9.5 9.7 80 1.8 NNE 19 24 10 13 1024.1 1021.4 0.0
28/06:00am 12.9 9.6 9.5 80 1.8 NNE 17 22 9 12 1023.9 1021.3 0.0
28/05:30am 13.1 9.4 9.5 79 1.9 NNE 19 22 10 12 1023.7 1021.0 0.0
28/05:00am 13.7 9.8 9.6 76 2.2 N 20 30 11 16 1023.6 1020.9 0.0
28/04:30am 13.7 9.8 9.6 76 2.2 N 20 28 11 15 1023.7 1021.0 0.0
28/04:00am 13.1 9.8 9.5 79 1.9 NNE 17 20 9 11 1023.9 1021.3 0.0
28/03:30am 13.4 9.7 9.6 78 2.0 NNE 19 22 10 12 1024.2 1021.5 0.0
28/03:00am 13.5 10.2 9.7 78 2.0 NNE 17 20 9 11 1024.3 1021.6 0.0
28/02:30am 13.8 10.6 10.0 78 2.0 NNE 17 20 9 11 1024.4 1021.7 0.0
28/02:00am 13.8 10.3 10.2 79 1.9 NNE 19 22 10 12 1024.7 1022.0 0.0
28/01:30am 13.7 11.3 10.1 79 1.9 NNE 13 17 7 9 1025.0 1022.4 0.0
28/01:00am 14.3 12.0 10.5 78 2.1 NNE 13 19 7 10 1025.1 1022.5 0.0
28/12:30am 15.3 11.9 10.7 74 2.5 NNE 19 22 10 12 1025.1 1022.5 0.0
28/12:00am 15.3 12.3 10.7 74 2.5 NNE 17 19 9 10 1025.2 1022.6 0.0
 
Date/Time
EDT
Temp
°C
App
Temp
°C
Dew
Point
°C
Rel
Hum
%
Delta-T
°C
Wind Press
QNH
hPa
Press
MSL
hPa
Rain since
9am
mm
Dir  Spd
km/h
Gust
km/h
Spd
kts
Gust
kts
27/11:30pm 16.2 13.2 10.7 70 3.0 NNE 17 19 9 10 1025.2 1022.6 0.0
27/11:00pm 17.1 14.1 10.7 66 3.5 N 17 22 9 12 1025.3 1022.7 0.0
27/10:30pm 17.2 14.6 10.6 65 3.7 N 15 20 8 11 1025.4 1022.8 0.0
27/10:00pm 17.2 15.2 10.1 63 3.9 N 11 15 6 8 1025.4 1022.8 0.0
27/09:30pm 18.6 18.6 9.9 57 4.8 CALM 0 0 0 0 1025.2 1022.6 0.0
27/09:00pm 18.8 17.5 10.1 57 4.8 W 7 9 4 5 1025.0 1022.4 0.0
27/08:30pm 19.0 17.7 9.8 55 5.1 SW 7 9 4 5 1024.8 1022.1 0.0
27/08:00pm 20.5 19.1 9.7 50 6.0 SSW 7 13 4 7 1024.6 1021.9 0.0
27/07:30pm 21.8 19.8 10.0 47 6.6 SSW 11 19 6 10 1024.2 1021.5 0.0
27/07:00pm 22.7 20.3 10.2 45 7.1 S 13 22 7 12 1023.8 1021.1 0.0
27/06:30pm 23.3 20.1 10.0 43 7.5 S 17 28 9 15 1023.5 1020.8 0.0
27/06:00pm 24.5 21.7 10.0 40 8.2 SSW 15 28 8 15 1023.2 1020.5 0.0
27/05:30pm 25.2 21.9 9.5 37 8.9 S 17 30 9 16 1023.1 1020.4 0.0
27/05:00pm 26.7 23.9 5.1 25 11.4 SSE 9 17 5 9 1023.1 1020.4 0.0
27/04:30pm 26.5 23.5 6.0 27 11.0 S 11 19 6 10 1023.1 1020.4 0.0
27/04:00pm 26.9 24.3 6.3 27 11.1 S 9 20 5 11 1023.2 1020.5 0.0
27/03:30pm 26.8 23.8 6.2 27 11.1 SE 11 17 6 9 1023.4 1020.7 0.0
27/03:00pm 26.1 22.8 6.2 28 10.7 SSW 13 19 7 10 1023.7 1021.0 0.0
27/02:30pm 26.4 24.5 7.4 30 10.5 SE 7 19 4 10 1024.2 1021.5 0.0
27/02:00pm 26.1 24.0 8.1 32 10.0 NNE 9 19 5 10 1024.5 1021.8 0.0
27/01:30pm 25.0 23.4 8.1 34 9.3 NNE 6 9 3 5 1024.7 1022.0 0.0
27/01:00pm 24.6 22.0 9.3 38 8.6 N 13 19 7 10 1024.9 1022.2 0.0
27/12:30pm 23.2 20.6 9.2 41 7.8 NE 13 20 7 11 1025.2 1022.6 0.0
27/12:00pm 22.4 18.7 10.2 46 6.9 NNE 20 30 11 16 1025.4 1022.8 0.0
27/11:30am 21.2 16.7 10.1 49 6.2 NNE 24 32 13 17 1025.7 1023.0 0.0
27/11:00am 20.3 15.9 10.4 53 5.5 NNE 24 32 13 17 1026.0 1023.3 0.0
27/10:30am 19.0 14.5 10.0 56 5.0 NNE 24 33 13 18 1026.0 1023.3 0.0
27/10:00am 17.7 12.3 9.6 59 4.4 NNE 28 37 15 20 1026.1 1023.4 0.0
27/09:30am 16.2 11.0 8.7 61 4.0 NNE 26 35 14 19 1026.2 1023.6 0.0
27/09:00am 15.6 9.6 8.6 63 3.7 NNE 30 39 16 21 1026.0 1023.3 0.0
27/08:30am 14.2 7.7 8.2 67 3.1 NNE 32 43 17 23 1025.9 1023.2 0.0
27/08:00am 13.2 7.4 7.9 70 2.7 NNE 28 39 15 21 1025.7 1023.0 0.0
27/07:30am 12.3 6.8 7.6 73 2.4 N 26 35 14 19 1025.3 1022.7 0.0
27/07:00am 11.1 5.9 7.2 77 1.9 N 24 30 13 16 1025.2 1022.6 0.0
27/06:30am 10.9 6.1 7.2 78 1.8 N 22 32 12 17 1024.9 1022.2 0.0
27/06:00am 10.8 6.7 7.7 81 1.6 N 19 28 10 15 1024.6 1021.9 0.0
27/05:30am 10.5 6.3 7.6 82 1.5 NNE 19 22 10 12 1024.4 1021.7 0.0
27/05:00am 10.3 6.9 7.5 83 1.4 NNE 15 22 8 12 1024.2 1021.5 0.0
27/04:30am 10.3 6.9 7.7 84 1.3 NNE 15 20 8 11 1024.2 1021.5 0.0
27/04:00am 11.2 6.6 8.1 81 1.6 NNE 22 30 12 16 1024.2 1021.5 0.0
27/03:30am 10.4 6.1 7.8 84 1.3 NNE 20 24 11 13 1024.4 1021.7 0.0
27/03:00am 11.0 6.4 8.1 82 1.5 NNE 22 30 12 16 1024.6 1021.9 0.0
27/02:30am 10.6 6.5 8.0 84 1.3 NNE 19 24 10 13 1024.7 1022.0 0.0
27/02:00am 10.7 7.0 7.9 83 1.4 NNE 17 20 9 11 1024.9 1022.2 0.0
27/01:30am 11.7 7.7 8.4 80 1.7 NNE 19 24 10 13 1024.9 1022.2 0.0
27/01:00am 11.6 7.6 8.1 79 1.8 NNE 19 24 10 13 1025.0 1022.4 0.0
27/12:30am 11.4 7.7 7.9 79 1.8 NNE 17 20 9 11 1025.1 1022.5 0.0
27/12:00am 12.0 8.3 8.1 77 2.0 N 17 22 9 12 1025.0 1022.4 0.0
 
Date/Time
EDT
Temp
°C
App
Temp
°C
Dew
Point
°C
Rel
Hum
%
Delta-T
°C
Wind Press
QNH
hPa
Press
MSL
hPa
Rain since
9am
mm
Dir  Spd
km/h
Gust
km/h
Spd
kts
Gust
kts
26/11:30pm 12.7 8.7 8.2 74 2.3 NNE 19 24 10 13 1025.0 1022.4 0.0
26/11:00pm 13.1 9.1 8.2 72 2.5 NNE 19 22 10 12 1025.1 1022.5 0.0
26/10:30pm 13.8 9.6 8.2 69 2.9 N 20 24 11 13 1025.1 1022.5 0.0
26/10:00pm 13.6 10.7 8.2 70 2.8 N 13 17 7 9 1025.1 1022.5 0.0
26/09:30pm 14.0 12.5 9.0 72 2.6 N 7 9 4 5 1024.9 1022.2 0.0
26/09:00pm 15.4 15.2 9.1 66 3.3 CALM 0 0 0 0 1024.5 1021.8 0.0
26/08:30pm 16.4 15.1 9.3 63 3.8 S 6 7 3 4 1024.1 1021.4 0.0
26/08:00pm 17.7 16.8 9.3 58 4.5 S 4 9 2 5 1023.7 1021.0 0.0
26/07:30pm 19.0 16.4 9.2 53 5.3 SE 13 20 7 11 1023.5 1020.8 0.0
26/07:00pm 20.2 17.6 9.5 50 5.9 SSE 13 19 7 10 1023.2 1020.5 0.0
26/06:30pm 21.0 18.8 9.3 47 6.5 SSE 11 19 6 10 1022.8 1020.1 0.0
26/06:00pm 21.7 19.1 7.9 41 7.4 SE 11 17 6 9 1022.5 1019.8 0.0
26/05:30pm 22.1 20.0 8.2 41 7.6 SE 9 13 5 7 1022.4 1019.7 0.0
26/05:00pm 21.5 19.9 8.1 42 7.2 S 6 11 3 6 1022.5 1019.8 0.0
26/04:30pm 22.7 20.6 8.4 40 7.8 E 9 17 5 9 1022.7 1019.9 0.0
26/04:00pm 21.7 19.6 8.2 42 7.3 SSE 9 15 5 8 1022.7 1019.9 0.0
26/03:30pm 21.7 19.7 8.6 43 7.2 NNE 9 15 5 8 1022.9 1020.2 0.0
26/03:00pm 21.8 19.6 9.3 45 6.9 NNE 11 22 6 12 1023.1 1020.4 0.0
26/02:30pm 21.4 19.9 9.0 45 6.8 SSE 7 11 4 6 1023.5 1020.8 0.0
26/02:00pm 20.9 18.5 8.5 45 6.7 NE 11 17 6 9 1023.8 1021.1 0.0
26/01:30pm 20.1 16.9 8.4 47 6.3 NNE 15 22 8 12 1024.2 1021.5 0.0
26/01:00pm 19.3 15.8 8.9 51 5.6 NE 17 28 9 15 1024.3 1021.6 0.0
26/12:30pm 18.5 15.2 9.6 56 4.9 ENE 17 26 9 14 1024.6 1021.9 0.0
26/12:00pm 18.8 15.4 9.0 53 5.3 NNE 17 26 9 14 1024.6 1021.9 0.0
26/11:30am 18.0 14.7 9.6 58 4.6 NE 17 32 9 17 1024.7 1022.0 0.0
26/11:00am 16.3 12.4 9.3 63 3.8 NE 20 32 11 17 1024.8 1022.1 0.0
26/10:30am 16.2 12.9 9.4 64 3.7 NNE 17 28 9 15 1025.1 1022.5 0.0
26/10:00am 15.5 11.2 9.2 66 3.4 NNE 22 30 12 16 1025.0 1022.4 0.0
26/09:30am 14.5 9.8 9.1 70 2.9 NNE 24 35 13 19 1024.9 1022.2 0.0
26/09:00am 14.2 9.5 9.2 72 2.6 NNE 24 33 13 18 1024.6 1021.9 0.0
26/08:30am 13.3 9.9 9.0 75 2.3 NE 17 26 9 14 1024.6 1021.9 0.0
26/08:00am 12.1 9.4 8.9 81 1.7 NE 13 20 7 11 1024.4 1021.7 0.0
26/07:30am 10.8 8.3 8.4 85 1.2 NE 11 17 6 9 1024.4 1021.7 0.0
26/07:00am 10.5 7.3 8.3 86 1.1 NE 15 20 8 11 1023.6 1020.9 0.0
26/06:30am 10.4 7.5 8.0 85 1.2 NE 13 22 7 12 1023.3 1020.6 0.0
26/06:00am 10.6 7.2 7.8 83 1.4 NE 15 19 8 10 1023.1 1020.4 0.0
26/05:30am 10.3 7.3 7.7 84 1.3 NE 13 20 7 11 1023.0 1020.3 0.0
26/05:00am 10.4 7.4 7.6 83 1.4 NE 13 20 7 11 1023.1 1020.4 0.0
26/04:30am 10.7 6.9 7.6 81 1.6 NE 17 28 9 15 1023.1 1020.4 0.0
26/04:00am 10.9 7.9 7.8 81 1.6 NE 13 20 7 11 1023.3 1020.6 0.0
26/03:30am 11.0 7.7 8.2 83 1.4 NE 15 22 8 12 1023.2 1020.5 0.0
26/03:00am 11.5 8.8 9.1 85 1.2 NE 13 20 7 11 1023.3 1020.6 0.0
26/02:30am 11.4 7.0 9.0 85 1.2 NE 22 33 12 18 1023.4 1020.7 0.0
26/02:00am 11.6 7.3 9.2 85 1.2 NNE 22 30 12 16 1023.5 1020.8 0.0
26/01:30am 11.5 7.5 9.2 86 1.2 NNE 20 30 11 16 1023.7 1021.0 0.0
26/01:00am 12.0 8.0 9.2 83 1.5 NNE 20 28 11 15 1023.8 1021.1 0.0
26/12:30am 13.1 9.9 9.9 81 1.7 NE 17 26 9 14 1024.1 1021.4 0.0
26/12:00am 13.4 11.5 10.6 83 1.5 ENE 11 24 6 13 1024.2 1021.5 0.0
 
Date/Time
EDT
Temp
°C
App
Temp
°C
Dew
Point
°C
Rel
Hum
%
Delta-T
°C
Wind Press
QNH
hPa
Press
MSL
hPa
Rain since
9am
mm
Dir  Spd
km/h
Gust
km/h
Spd
kts
Gust
kts
25/11:30pm 13.7 12.8 11.2 85 1.4 ENE 7 13 4 7 1023.9 1021.3 0.0
25/11:00pm 13.3 13.8 11.5 89 1.0 CALM 0 7 0 4 1024.1 1021.4 0.0
25/10:30pm 13.4 13.8 11.1 86 1.3 CALM 0 6 0 3 1023.9 1021.3 0.0
25/10:00pm 13.6 12.3 11.3 86 1.3 NNE 9 11 5 6 1023.6 1020.9 0.0
25/09:30pm 13.8 12.9 11.3 85 1.4 ENE 7 13 4 7 1023.7 1021.0 0.0
25/09:00pm 13.9 13.0 11.2 84 1.5 SE 7 9 4 5 1023.5 1020.8 0.0
25/08:30pm 14.1 12.5 11.4 84 1.5 ESE 11 17 6 9 1023.2 1020.5 0.0
25/08:00pm 14.4 13.1 11.2 81 1.8 E 9 17 5 9 1022.9 1020.2 0.0
25/07:30pm 14.7 12.6 11.3 80 1.9 ESE 13 19 7 10 1022.5 1019.8 0.0
25/07:00pm 15.1 13.0 11.1 77 2.2 ESE 13 17 7 9 1022.2 1019.5 0.0
25/06:30pm 15.6 13.8 11.0 74 2.5 ESE 11 17 6 9 1022.1 1019.4 0.0
25/06:00pm 15.9 13.8 11.1 73 2.7 ENE 13 20 7 11 1021.9 1019.2 0.0
25/05:30pm 16.5 14.2 10.6 68 3.3 N 13 17 7 9 1021.9 1019.2 0.0
25/05:00pm 17.2 15.6 10.3 64 3.8 N 9 13 5 7 1021.9 1019.2 0.0
25/04:30pm 17.0 15.3 9.9 63 3.9 N 9 15 5 8 1022.1 1019.4 0.0
25/04:00pm 16.9 14.4 9.6 62 4.0 NNE 13 20 7 11 1022.2 1019.5 0.0
25/03:30pm 17.2 14.9 9.1 59 4.4 NNE 11 19 6 10 1022.4 1019.7 0.0
25/03:00pm 17.0 14.6 8.7 58 4.4 N 11 15 6 8 1022.8 1020.1 0.0
25/02:30pm 17.5 14.6 8.1 54 5.0 NE 13 20 7 11 1023.1 1020.4 0.0

Other Formats:

Comma delimited format used in spreadsheet applications
http://www.bom.gov.au/fwo/IDV60801/IDV60801.94913.axf

JavaScript Object Notation format (JSON) in row-major order
http://www.bom.gov.au/fwo/IDV60801/IDV60801.94913.json